| time (UTC) | temp C | wind direction | speed KPH | gust KPH | rain 1hr cm | rain 24hr cm | rain mn cm | humidity % | barometer mb |
| 20260503212008 | 25 | 261 | 3.2 | 11.3 | 0.00 | 0.00 | 0.00 | 52 | 1011.7 |
| 20260503211514 | 24 | 135 | 1.6 | 14.5 | 0.00 | 0.00 | 0.00 | 54 | 1011.7 |
| 20260503211005 | 25 | 184 | 4.8 | 14.5 | 0.00 | 0.00 | 0.00 | 52 | 1011.8 |
| 20260503210507 | 25 | 228 | 6.4 | 14.5 | 0.00 | 0.00 | 0.00 | 52 | 1011.8 |
| 20260503210018 | 24 | 193 | 4.8 | 14.5 | 0.00 | 0.00 | 0.00 | 53 | 1011.9 |
| 20260503205507 | 24 | 241 | 4.8 | 14.5 | 0.00 | 0.00 | 0.00 | 53 | 1011.9 |
| 20260503205010 | 23 | 242 | 6.4 | 14.5 | 0.00 | 0.00 | 0.00 | 53 | 1012.0 |
| 20260503204527 | 23 | 207 | 4.8 | 12.9 | 0.00 | 0.00 | 0.00 | 52 | 1012.0 |
| 20260503204006 | 23 | 173 | 6.4 | 14.5 | 0.00 | 0.00 | 0.00 | 52 | 1012.0 |
| 20260503203510 | 23 | 171 | 4.8 | 14.5 | 0.00 | 0.00 | 0.00 | 50 | 1012.1 |
| 20260503203025 | 24 | 221 | 6.4 | 19.3 | 0.00 | 0.00 | 0.00 | 50 | 1012.0 |
| 20260503202513 | 23 | 271 | 6.4 | 19.3 | 0.00 | 0.00 | 0.00 | 51 | 1012.1 |
| 20260503202009 | 23 | 252 | 8.0 | 16.1 | 0.00 | 0.00 | 0.00 | 53 | 1012.1 |
| 20260503201526 | 23 | 211 | 4.8 | 17.7 | 0.00 | 0.00 | 0.00 | 53 | 1012.1 |
| 20260503201004 | 23 | 227 | 6.4 | 17.7 | 0.00 | 0.00 | 0.00 | 55 | 1012.1 |
| 20260503200504 | 24 | 159 | 6.4 | 17.7 | 0.00 | 0.00 | 0.00 | 52 | 1012.2 |
| 20260503200016 | 24 | 242 | 6.4 | 17.7 | 0.00 | 0.00 | 0.00 | 52 | 1012.3 |
| 20260503195505 | 23 | 227 | 6.4 | 12.9 | 0.00 | 0.00 | 0.00 | 51 | 1012.4 |
| 20260503195006 | 25 | 293 | 1.6 | 11.3 | 0.00 | 0.00 | 0.00 | 46 | 1012.5 |
| 20260503194521 | 24 | 288 | 3.2 | 11.3 | 0.00 | 0.00 | 0.00 | 47 | 1012.5 |
| 20260503194006 | 23 | 312 | 3.2 | 12.9 | 0.00 | 0.00 | 0.00 | 48 | 1012.7 |
| 20260503193506 | 23 | 324 | 3.2 | 12.9 | 0.00 | 0.00 | 0.00 | 46 | 1012.7 |
| 20260503193025 | 25 | 240 | 3.2 | 11.3 | 0.00 | 0.00 | 0.00 | 44 | 1012.9 |
| 20260503192508 | 25 | 274 | 1.6 | 11.3 | 0.00 | 0.00 | 0.00 | 45 | 1012.9 |
| 20260503192012 | 24 | 24 | 3.2 | 11.3 | 0.00 | 0.00 | 0.00 | 48 | 1013.0 |
| 20260503191524 | 23 | 246 | 1.6 | 19.3 | 0.00 | 0.00 | 0.00 | 47 | 1013.0 |
| 20260503191008 | 23 | 26 | 3.2 | 19.3 | 0.00 | 0.00 | 0.00 | 47 | 1013.1 |
| 20260503190509 | 23 | 343 | 4.8 | 17.7 | 0.00 | 0.00 | 0.00 | 47 | 1013.1 |
| 20260503190038 | 23 | 323 | 8.0 | 17.7 | 0.00 | 0.00 | 0.00 | 47 | 1013.1 |
| 20260503185504 | 23 | 263 | 4.8 | 14.5 | 0.00 | 0.00 | 0.00 | 48 | 1013.2 |
| 20260503185005 | 23 | 325 | 1.6 | 12.9 | 0.00 | 0.00 | 0.00 | 51 | 1013.2 |
| 20260503184519 | 23 | 269 | 3.2 | 12.9 | 0.00 | 0.00 | 0.00 | 54 | 1013.3 |
| 20260503184006 | 23 | 249 | 3.2 | 11.3 | 0.00 | 0.00 | 0.00 | 57 | 1013.3 |
| 20260503183505 | 22 | 60 | 1.6 | 9.7 | 0.00 | 0.00 | 0.00 | 58 | 1013.4 |
| 20260503183021 | 22 | 251 | 4.8 | 9.7 | 0.00 | 0.00 | 0.00 | 58 | 1013.5 |
| 20260503182507 | 22 | 327 | 1.6 | 11.3 | 0.00 | 0.00 | 0.00 | 60 | 1013.6 |
| 20260503182008 | 21 | 252 | 6.4 | 11.3 | 0.00 | 0.00 | 0.00 | 61 | 1013.6 |
| 20260503181544 | 21 | 163 | 1.6 | 9.7 | 0.00 | 0.00 | 0.00 | 61 | 1013.7 |
| 20260503181007 | 21 | 217 | 4.8 | 11.3 | 0.00 | 0.00 | 0.00 | 62 | 1013.7 |
| 20260503180506 | 21 | 227 | 4.8 | 11.3 | 0.00 | 0.00 | 0.00 | 63 | 1013.8 |
| 20260503180040 | 21 | 319 | 3.2 | 9.7 | 0.00 | 0.00 | 0.00 | 62 | 1013.8 |
| 20260503175513 | 20 | 277 | 1.6 | 11.3 | 0.00 | 0.00 | 0.00 | 64 | 1013.8 |
| 20260503175009 | 20 | 235 | 3.2 | 11.3 | 0.00 | 0.00 | 0.00 | 64 | 1013.8 |
| 20260503174528 | 20 | 212 | 1.6 | 8.0 | 0.00 | 0.00 | 0.00 | 63 | 1013.9 |
| 20260503174005 | 20 | 273 | 1.6 | 8.0 | 0.00 | 0.00 | 0.00 | 64 | 1013.9 |
| 20260503173504 | 20 | 246 | 1.6 | 8.0 | 0.00 | 0.00 | 0.00 | 66 | 1013.9 |
| 20260503173019 | 20 | 220 | 1.6 | 8.0 | 0.00 | 0.00 | 0.00 | 64 | 1013.9 |
| 20260503172508 | 20 | 254 | 1.6 | 8.0 | 0.00 | 0.00 | 0.00 | 65 | 1014.0 |
| 20260503172006 | 19 | 233 | 3.2 | 8.0 | 0.00 | 0.00 | 0.00 | 66 | 1014.0 |
| 20260503171526 | 19 | 223 | 1.6 | 4.8 | 0.00 | 0.00 | 0.00 | 66 | 1014.0 |
| 20260503171009 | 18 | 275 | 1.6 | 9.7 | 0.00 | 0.00 | 0.00 | 67 | 1014.1 |
| 20260503170506 | 18 | 200 | 4.8 | 9.7 | 0.00 | 0.00 | 0.00 | 68 | 1014.1 |
| 20260503151008 | 13 | 360 | 0.0 | 4.8 | 0.00 | 0.00 | 0.00 | 83 | 1014.6 |
| 20260503150507 | 13 | 352 | 0.0 | 4.8 | 0.00 | 0.00 | 0.00 | 84 | 1014.6 |
| 20260503131005 | 9 | 70 | 0.0 | 1.6 | 0.00 | 0.00 | 0.00 | 90 | 1014.1 |
| 20260503130504 | 10 | 70 | 0.0 | 3.2 | 0.00 | 0.00 | 0.00 | 90 | 1014.1 |
| 20260503110507 | 11 | 70 | 0.0 | 3.2 | 0.00 | 0.00 | 0.00 | 87 | 1014.5 |
| 20260503090507 | 12 | 70 | 1.6 | 6.4 | 0.00 | 0.00 | 0.00 | 81 | 1014.4 |
| 20260503081526 | 13 | 70 | 0.0 | 4.8 | 0.00 | 0.00 | 0.00 | 77 | 1014.4 |
| 20260503081009 | 13 | 70 | 3.2 | 4.8 | 0.00 | 0.00 | 0.00 | 77 | 1014.4 |
| 20260503080508 | 13 | 70 | 3.2 | 4.8 | 0.00 | 0.00 | 0.00 | 77 | 1014.4 |
| 20260503072506 | 13 | 70 | 0.0 | 3.2 | 0.00 | 0.00 | 0.00 | 73 | 1014.3 |
| 20260503072004 | 14 | 70 | 0.0 | 3.2 | 0.00 | 0.00 | 0.00 | 73 | 1014.3 |
| 20260503071522 | 14 | 69 | 1.6 | 4.8 | 0.00 | 0.00 | 0.00 | 72 | 1014.2 |
| 20260503071006 | 14 | 70 | 1.6 | 4.8 | 0.00 | 0.00 | 0.00 | 72 | 1014.2 |
| 20260503070504 | 14 | 70 | 3.2 | 4.8 | 0.00 | 0.00 | 0.00 | 72 | 1014.2 |
| 20260503055007 | 16 | 47 | 1.6 | 3.2 | 0.00 | 0.00 | 0.00 | 64 | 1014.2 |
| 20260503054534 | 16 | 47 | 1.6 | 3.2 | 0.00 | 0.00 | 0.00 | 63 | 1014.2 |
| 20260503054008 | 16 | 47 | 1.6 | 4.8 | 0.00 | 0.00 | 0.00 | 63 | 1014.2 |
| 20260503053507 | 16 | 47 | 1.6 | 4.8 | 0.00 | 0.00 | 0.00 | 62 | 1014.3 |
| 20260503053016 | 17 | 47 | 1.6 | 4.8 | 0.00 | 0.00 | 0.00 | 61 | 1014.4 |
| 20260503052503 | 17 | 47 | 1.6 | 4.8 | 0.00 | 0.00 | 0.00 | 60 | 1014.3 |
| 20260503052004 | 17 | 29 | 3.2 | 6.4 | 0.00 | 0.00 | 0.00 | 59 | 1014.3 |
| 20260503051516 | 17 | 5 | 1.6 | 6.4 | 0.00 | 0.00 | 0.00 | 59 | 1014.2 |
| 20260503051003 | 17 | 352 | 1.6 | 6.4 | 0.00 | 0.00 | 0.00 | 58 | 1014.1 |
| 20260503050506 | 17 | 342 | 1.6 | 6.4 | 0.00 | 0.00 | 0.00 | 58 | 1014.1 |
| 20260503050018 | 17 | 352 | 3.2 | 6.4 | 0.00 | 0.00 | 0.00 | 58 | 1014.1 |
| 20260503045504 | 17 | 19 | 0.0 | 4.8 | 0.00 | 0.00 | 0.00 | 58 | 1014.0 |
| 20260503045007 | 17 | 20 | 1.6 | 6.4 | 0.00 | 0.00 | 0.00 | 57 | 1014.0 |
| 20260503044523 | 18 | 326 | 1.6 | 6.4 | 0.00 | 0.00 | 0.00 | 57 | 1013.9 |
| 20260503044009 | 18 | 346 | 1.6 | 6.4 | 0.00 | 0.00 | 0.00 | 57 | 1013.8 |
| 20260503043508 | 18 | 342 | 1.6 | 4.8 | 0.00 | 0.00 | 0.00 | 57 | 1013.8 |
| 20260503043025 | 18 | 351 | 3.2 | 6.4 | 0.00 | 0.00 | 0.00 | 57 | 1013.7 |
| 20260503042511 | 18 | 346 | 1.6 | 8.0 | 0.00 | 0.00 | 0.00 | 56 | 1013.6 |
| 20260503042011 | 18 | 339 | 1.6 | 8.0 | 0.00 | 0.00 | 0.00 | 56 | 1013.5 |
| 20260503041510 | 18 | 320 | 0.0 | 6.4 | 0.00 | 0.00 | 0.00 | 56 | 1013.5 |
| 20260503041004 | 18 | 325 | 0.0 | 4.8 | 0.00 | 0.00 | 0.00 | 56 | 1013.5 |
| 20260503040509 | 18 | 352 | 0.0 | 3.2 | 0.00 | 0.00 | 0.00 | 55 | 1013.5 |
| 20260503040024 | 18 | 352 | 0.0 | 3.2 | 0.00 | 0.00 | 0.00 | 54 | 1013.4 |
| 20260503035503 | 19 | 282 | 1.6 | 6.4 | 0.00 | 0.00 | 0.00 | 54 | 1013.3 |
| 20260503035007 | 19 | 324 | 1.6 | 8.0 | 0.00 | 0.00 | 0.00 | 53 | 1013.2 |
| 20260503034520 | 19 | 330 | 3.2 | 8.0 | 0.00 | 0.00 | 0.00 | 53 | 1013.2 |
| 20260503034004 | 19 | 290 | 0.0 | 8.0 | 0.00 | 0.00 | 0.00 | 52 | 1013.1 |
| 20260503033507 | 20 | 290 | 3.2 | 8.0 | 0.00 | 0.00 | 0.00 | 52 | 1013.0 |
| 20260503033024 | 20 | 292 | 1.6 | 6.4 | 0.00 | 0.00 | 0.00 | 51 | 1013.0 |
| 20260503032508 | 20 | 321 | 1.6 | 8.0 | 0.00 | 0.00 | 0.00 | 51 | 1012.9 |
| 20260503032006 | 20 | 288 | 0.0 | 8.0 | 0.00 | 0.00 | 0.00 | 50 | 1012.9 |
| 20260503031528 | 20 | 320 | 3.2 | 16.1 | 0.00 | 0.00 | 0.00 | 49 | 1012.9 |
| 20260503031008 | 20 | 319 | 3.2 | 16.1 | 0.00 | 0.00 | 0.00 | 48 | 1012.8 |
| 20260503030510 | 21 | 287 | 1.6 | 9.7 | 0.00 | 0.00 | 0.00 | 48 | 1012.8 |
| 20260503030012 | 21 | 339 | 3.2 | 9.7 | 0.00 | 0.00 | 0.00 | 48 | 1012.8 |
| 20260503025504 | 21 | 313 | 1.6 | 11.3 | 0.00 | 0.00 | 0.00 | 47 | 1012.8 |
| 20260503025004 | 21 | 290 | 1.6 | 11.3 | 0.00 | 0.00 | 0.00 | 46 | 1012.8 |
| 20260503024516 | 21 | 336 | 4.8 | 9.7 | 0.00 | 0.00 | 0.00 | 46 | 1012.8 |
| 20260503024006 | 21 | 278 | 3.2 | 14.5 | 0.00 | 0.00 | 0.00 | 46 | 1012.9 |
| 20260503023505 | 21 | 227 | 4.8 | 14.5 | 0.00 | 0.00 | 0.00 | 45 | 1012.8 |
| 20260503023023 | 21 | 327 | 1.6 | 14.5 | 0.00 | 0.00 | 0.00 | 45 | 1012.8 |
| 20260503022506 | 21 | 318 | 3.2 | 14.5 | 0.00 | 0.00 | 0.00 | 45 | 1012.9 |
| 20260503022007 | 22 | 333 | 4.8 | 17.7 | 0.00 | 0.00 | 0.00 | 44 | 1012.8 |
| 20260503021526 | 22 | 320 | 4.8 | 17.7 | 0.00 | 0.00 | 0.00 | 44 | 1012.7 |
| 20260503021006 | 22 | 336 | 6.4 | 17.7 | 0.00 | 0.00 | 0.00 | 44 | 1012.8 |
| 20260503020507 | 22 | 263 | 4.8 | 14.5 | 0.00 | 0.00 | 0.00 | 44 | 1012.8 |
| 20260503020026 | 22 | 232 | 1.6 | 16.1 | 0.00 | 0.00 | 0.00 | 44 | 1012.8 |
| 20260503015510 | 22 | 347 | 8.0 | 16.1 | 0.00 | 0.00 | 0.00 | 43 | 1012.8 |
| 20260503015002 | 22 | 342 | 4.8 | 16.1 | 0.00 | 0.00 | 0.00 | 43 | 1012.9 |
| 20260503014515 | 22 | 265 | 8.0 | 16.1 | 0.00 | 0.00 | 0.00 | 42 | 1012.9 |
| 20260503014002 | 22 | 286 | 4.8 | 16.1 | 0.00 | 0.00 | 0.00 | 41 | 1013.0 |
| 20260503013508 | 22 | 317 | 3.2 | 16.1 | 0.00 | 0.00 | 0.00 | 42 | 1013.0 |
| 20260503013020 | 22 | 254 | 6.4 | 30.6 | 0.00 | 0.00 | 0.00 | 41 | 1013.0 |
| 20260503012506 | 22 | 250 | 8.0 | 30.6 | 0.00 | 0.00 | 0.00 | 42 | 1013.1 |
| 20260503012006 | 22 | 242 | 6.4 | 29.0 | 0.00 | 0.00 | 0.00 | 43 | 1013.1 |
| 20260503011531 | 23 | 30 | 4.8 | 29.0 | 0.00 | 0.00 | 0.00 | 42 | 1013.1 |
| 20260503011007 | 23 | 352 | 9.7 | 20.9 | 0.00 | 0.00 | 0.00 | 43 | 1013.1 |
| 20260503010510 | 23 | 318 | 6.4 | 20.9 | 0.00 | 0.00 | 0.00 | 45 | 1013.1 |
| 20260503010030 | 23 | 333 | 8.0 | 17.7 | 0.00 | 0.00 | 0.00 | 46 | 1013.2 |
| 20260503005510 | 23 | 286 | 3.2 | 14.5 | 0.00 | 0.00 | 0.00 | 48 | 1013.3 |
| 20260503005011 | 23 | 305 | 4.8 | 14.5 | 0.00 | 0.00 | 0.00 | 48 | 1013.3 |
| 20260503004552 | 23 | 267 | 4.8 | 19.3 | 0.00 | 0.00 | 0.00 | 49 | 1013.3 |
| 20260503004009 | 23 | 360 | 3.2 | 19.3 | 0.00 | 0.00 | 0.00 | 50 | 1013.3 |
| 20260503003503 | 23 | 9 | 8.0 | 19.3 | 0.00 | 0.00 | 0.00 | 50 | 1013.3 |
| 20260503003018 | 23 | 263 | 6.4 | 16.1 | 0.00 | 0.00 | 0.00 | 51 | 1013.2 |
| 20260503002506 | 23 | 293 | 4.8 | 16.1 | 0.00 | 0.00 | 0.00 | 51 | 1013.2 |
| 20260503002007 | 23 | 268 | 3.2 | 16.1 | 0.00 | 0.00 | 0.00 | 51 | 1013.2 |
| 20260503001523 | 23 | 311 | 6.4 | 19.3 | 0.00 | 0.00 | 0.00 | 51 | 1013.3 |
| 20260503001007 | 23 | 333 | 6.4 | 19.3 | 0.00 | 0.00 | 0.00 | 51 | 1013.5 |
| 20260503000512 | 23 | 335 | 4.8 | 16.1 | 0.00 | 0.00 | 0.00 | 51 | 1013.5 |
| 20260503000026 | 23 | 5 | 3.2 | 12.9 | 0.00 | 0.00 | 0.00 | 51 | 1013.4 |
| 20260502235505 | 24 | 279 | 3.2 | 17.7 | 0.00 | 0.00 | 0.00 | 51 | 1013.5 |
| 20260502235006 | 23 | 293 | 3.2 | 17.7 | 0.00 | 0.00 | 0.00 | 50 | 1013.4 |
| 20260502234534 | 24 | 329 | 6.4 | 17.7 | 0.00 | 0.00 | 0.00 | 51 | 1013.4 |
| 20260502234009 | 23 | 298 | 3.2 | 17.7 | 0.00 | 0.00 | 0.00 | 53 | 1013.5 |
| 20260502233508 | 23 | 340 | 6.4 | 17.7 | 0.00 | 0.00 | 0.00 | 52 | 1013.5 |
| 20260502233028 | 24 | 262 | 6.4 | 14.5 | 0.00 | 0.00 | 0.00 | 51 | 1013.5 |
| 20260502232503 | 23 | 285 | 4.8 | 9.7 | 0.00 | 0.00 | 0.00 | 52 | 1013.5 |
| 20260502232005 | 24 | 352 | 3.2 | 14.5 | 0.00 | 0.00 | 0.00 | 53 | 1013.6 |
| 20260502231520 | 23 | 293 | 3.2 | 14.5 | 0.00 | 0.00 | 0.00 | 54 | 1013.7 |
| 20260502231004 | 23 | 323 | 4.8 | 19.3 | 0.00 | 0.00 | 0.00 | 54 | 1013.7 |
| 20260502230508 | 23 | 298 | 3.2 | 19.3 | 0.00 | 0.00 | 0.00 | 56 | 1013.8 |
| 20260502230022 | 23 | 312 | 3.2 | 16.1 | 0.00 | 0.00 | 0.00 | 54 | 1013.9 |
| 20260502225508 | 23 | 333 | 6.4 | 17.7 | 0.00 | 0.00 | 0.00 | 55 | 1013.9 |
| 20260502225009 | 23 | 337 | 4.8 | 19.3 | 0.00 | 0.00 | 0.00 | 56 | 1014.0 |
| 20260502224526 | 23 | 267 | 4.8 | 19.3 | 0.00 | 0.00 | 0.00 | 58 | 1014.0 |
| 20260502224010 | 23 | 262 | 9.7 | 17.7 | 0.00 | 0.00 | 0.00 | 56 | 1014.1 |
| 20260502223509 | 23 | 302 | 6.4 | 20.9 | 0.00 | 0.00 | 0.00 | 56 | 1014.2 |
| 20260502223031 | 23 | 335 | 8.0 | 20.9 | 0.00 | 0.00 | 0.00 | 57 | 1014.3 |
| 20260502222506 | 23 | 292 | 3.2 | 17.7 | 0.00 | 0.00 | 0.00 | 58 | 1014.4 |
| 20260502222007 | 23 | 218 | 4.8 | 19.3 | 0.00 | 0.00 | 0.00 | 58 | 1014.5 |
| 20260502221519 | 22 | 47 | 8.0 | 19.3 | 0.00 | 0.00 | 0.00 | 58 | 1014.5 |
| 20260502221004 | 22 | 139 | 8.0 | 19.3 | 0.00 | 0.00 | 0.00 | 58 | 1014.5 |
| 20260502220508 | 23 | 44 | 6.4 | 19.3 | 0.00 | 0.00 | 0.00 | 57 | 1014.5 |
| 20260502220028 | 23 | 327 | 9.7 | 19.3 | 0.00 | 0.00 | 0.00 | 57 | 1014.6 |
| 20260502215503 | 23 | 352 | 4.8 | 16.1 | 0.00 | 0.00 | 0.00 | 55 | 1014.7 |
| 20260502215003 | 23 | 293 | 1.6 | 17.7 | 0.00 | 0.00 | 0.00 | 57 | 1014.7 |
| 20260502214503 | 23 | 255 | 1.6 | 17.7 | 0.00 | 0.00 | 0.00 | 59 | 1014.7 |
| 20260502214004 | 22 | 345 | 4.8 | 19.3 | 0.00 | 0.00 | 0.00 | 56 | 1015.0 |
| 20260502213503 | 22 | 328 | 6.4 | 19.3 | 0.00 | 0.00 | 0.00 | 57 | 1015.0 |
| 20260502213021 | 23 | 209 | 4.8 | 14.5 | 0.00 | 0.00 | 0.00 | 55 | 1015.0 |
| 20260502212503 | 22 | 338 | 4.8 | 14.5 | 0.00 | 0.00 | 0.00 | 57 | 1015.0 |